Time;durP1;ratioP1;P1;durP2;ratioP2;P2;SDS_P1;SDS_P2;PMS_P1;PMS_P2;Temp;Humidity;BMP_temperature;BMP_pressure;BME280_temperature;BME280_humidity;BME280_pressure;Samples;Min_cycle;Max_cycle;Signal;HPM_P1;HPM_P2
2022/08/09 00:01:39;;;;;;;2.53;1.93;;;;;;;19.18;63.13;101738.28;5027894;28;20214;-80
2022/08/09 00:04:06;;;;;;;3.67;2.17;;;;;;;19.18;62.25;101757.66;5028456;28;20206;-80
2022/08/09 00:06:32;;;;;;;2.67;2.03;;;;;;;19.10;63.53;101746.47;5026301;28;20653;-81
2022/08/09 00:08:59;;;;;;;2.47;1.70;;;;;;;19.05;63.05;101741.34;5026298;28;20233;-81
2022/08/09 00:11:28;;;;;;;2.87;2.23;;;;;;;18.82;64.31;101718.28;5025499;28;20289;-80
2022/08/09 00:13:54;;;;;;;1.90;1.80;;;;;;;18.79;64.09;101694.59;5025059;28;20207;-80
2022/08/09 00:16:21;;;;;;;2.20;1.70;;;;;;;18.75;64.02;101689.41;5022819;28;20207;-80
2022/08/09 00:18:48;;;;;;;2.10;1.90;;;;;;;18.79;63.75;101699.88;5022114;28;20662;-79
2022/08/09 00:21:15;;;;;;;2.33;2.00;;;;;;;18.70;64.87;101701.94;5026081;28;20341;-80
2022/08/09 00:23:41;;;;;;;3.27;2.20;;;;;;;18.57;64.50;101696.16;5026319;28;20227;-83
2022/08/09 00:26:09;;;;;;;2.13;1.83;;;;;;;18.55;65.02;101682.13;5029061;28;20231;-79
2022/08/09 00:28:37;;;;;;;3.07;2.03;;;;;;;18.17;66.07;101668.34;5025750;28;20211;-80
2022/08/09 00:31:04;;;;;;;3.93;2.10;;;;;;;18.33;65.80;101648.44;5026439;28;20234;-80
2022/08/09 00:33:30;;;;;;;3.77;2.13;;;;;;;18.37;66.03;101647.41;5029243;28;20297;-79
2022/08/09 00:35:59;;;;;;;1.87;1.77;;;;;;;18.45;65.38;101644.53;5027020;28;20265;-80
2022/08/09 00:38:27;;;;;;;2.47;2.03;;;;;;;18.51;65.73;101672.56;5026733;28;20218;-80
2022/08/09 00:40:53;;;;;;;2.53;2.17;;;;;;;18.49;66.03;101659.38;5025791;28;20203;-79
2022/08/09 00:43:20;;;;;;;1.90;1.80;;;;;;;18.53;64.73;101676.03;5025472;28;20223;-80
2022/08/09 00:45:48;;;;;;;3.40;2.10;;;;;;;18.55;65.97;101680.38;5026922;28;20252;-82
2022/08/09 00:48:14;;;;;;;2.40;2.17;;;;;;;18.53;65.94;101671.63;5027110;28;20230;-81
2022/08/09 00:50:41;;;;;;;2.23;2.00;;;;;;;18.51;65.31;101670.78;5026567;28;20231;-80
2022/08/09 00:53:07;;;;;;;1.67;1.57;;;;;;;18.52;65.23;101688.38;5025840;28;20234;-80
2022/08/09 00:55:34;;;;;;;2.10;2.00;;;;;;;18.48;65.31;101689.41;5025620;28;20214;-83
2022/08/09 00:58:00;;;;;;;2.23;1.80;;;;;;;18.49;66.99;101667.31;5025761;28;20207;-82
2022/08/09 01:00:27;;;;;;;3.63;2.20;;;;;;;18.44;66.03;101664.81;5026907;28;20677;-82
2022/08/09 01:03:04;;;;;;;2.07;1.97;;;;;;;18.46;66.09;101662.13;5027472;28;20222;-81
2022/08/09 01:05:37;;;;;;;1.97;1.80;;;;;;;18.45;66.43;101661.28;5027568;28;20210;-82
2022/08/09 01:08:08;;;;;;;2.03;1.77;;;;;;;18.41;65.60;101675.53;5027831;28;20207;-81
2022/08/09 01:10:48;;;;;;;2.63;1.83;;;;;;;18.42;65.46;101697.53;5027359;28;20206;-80
2022/08/09 01:13:24;;;;;;;4.53;2.30;;;;;;;18.41;65.96;101693.13;5029688;28;20222;-79
2022/08/09 01:15:54;;;;;;;2.70;2.20;;;;;;;18.38;66.08;101695.91;5026972;28;20206;-80
2022/08/09 01:18:26;;;;;;;2.70;1.93;;;;;;;18.33;65.71;101696.03;5022737;28;20211;-80
2022/08/09 01:20:59;;;;;;;2.43;2.23;;;;;;;18.30;65.96;101706.72;5020970;28;20203;-79
2022/08/09 01:23:38;;;;;;;3.47;2.33;;;;;;;18.25;67.16;101683.06;5023539;28;20633;-80
2022/08/09 01:26:23;;;;;;;2.80;2.00;;;;;;;18.16;67.47;101656.06;5021507;28;20207;-80
2022/08/09 01:28:55;;;;;;;2.43;2.07;;;;;;;18.14;68.28;101648.16;5024480;28;20237;-80
2022/08/09 01:31:26;;;;;;;3.10;2.30;;;;;;;18.14;68.40;101626.16;5024367;28;20261;-80
2022/08/09 01:33:56;;;;;;;2.37;2.10;;;;;;;18.12;68.79;101620.06;5024574;28;20206;-81
2022/08/09 01:36:26;;;;;;;3.63;2.20;;;;;;;18.11;68.65;101626.25;5024776;28;20210;-81
2022/08/09 01:38:54;;;;;;;2.37;2.17;;;;;;;18.04;68.47;101634.38;5023789;28;20242;-82
2022/08/09 01:41:25;;;;;;;2.40;2.30;;;;;;;18.05;69.20;101629.94;5022590;28;20207;-80
2022/08/09 01:43:56;;;;;;;2.83;1.80;;;;;;;18.04;68.83;101615.88;5013092;28;20229;-81
2022/08/09 01:46:26;;;;;;;3.33;2.50;;;;;;;18.04;68.28;101642.31;5025721;28;20203;-81
2022/08/09 01:48:55;;;;;;;2.87;2.30;;;;;;;18.04;69.33;101628.22;5028045;28;20230;-80
2022/08/09 01:51:23;;;;;;;4.53;2.30;;;;;;;18.06;69.83;101599.97;5028048;28;20276;-79
2022/08/09 01:53:50;;;;;;;2.23;2.03;;;;;;;18.04;70.39;101585.97;5028745;28;20226;-82
2022/08/09 01:56:18;;;;;;;3.10;2.57;;;;;;;18.02;68.97;101607.13;5029194;28;20657;-80
2022/08/09 01:58:46;;;;;;;2.60;2.40;;;;;;;17.98;68.57;101629.28;5029676;28;20234;-81
2022/08/09 02:01:15;;;;;;;3.77;2.33;;;;;;;17.96;68.57;101638.19;5029879;28;20228;-79
2022/08/09 02:03:43;;;;;;;3.53;2.27;;;;;;;17.96;68.27;101651.38;5028941;28;20728;-80
2022/08/09 02:06:10;;;;;;;2.73;1.93;;;;;;;17.91;68.23;101656.78;5029538;28;20203;-81
2022/08/09 02:08:39;;;;;;;3.17;2.43;;;;;;;17.88;68.57;101648.97;5029876;28;20211;-82
2022/08/09 02:11:08;;;;;;;2.30;2.10;;;;;;;17.83;68.73;101651.72;5029835;28;20631;-83
2022/08/09 02:13:36;;;;;;;3.93;2.77;;;;;;;17.71;69.20;101638.00;5029945;28;20227;-81
2022/08/09 02:16:05;;;;;;;2.83;2.40;;;;;;;17.60;69.73;101623.34;5030924;28;20207;-81
2022/08/09 02:18:35;;;;;;;2.63;2.30;;;;;;;17.61;69.89;101621.56;5031406;28;20211;-81
2022/08/09 02:21:08;;;;;;;2.20;2.10;;;;;;;17.53;70.13;101607.72;5030973;28;20210;-81
2022/08/09 02:23:39;;;;;;;2.67;2.40;;;;;;;17.40;70.63;101599.28;5031139;28;20288;-81
2022/08/09 02:26:07;;;;;;;3.87;2.60;;;;;;;17.39;70.76;101593.13;5031241;28;20701;-80
2022/08/09 02:28:37;;;;;;;2.70;2.50;;;;;;;17.42;70.32;101595.72;5031283;28;20647;-82
2022/08/09 02:31:05;;;;;;;4.10;2.60;;;;;;;17.45;70.75;101614.06;5026693;28;20202;-79
2022/08/09 02:33:38;;;;;;;2.47;2.37;;;;;;;17.40;70.52;101607.19;5023797;28;20223;-79
2022/08/09 02:36:08;;;;;;;2.30;2.10;;;;;;;17.32;71.03;101604.78;5024128;28;20206;-79
2022/08/09 02:38:42;;;;;;;2.23;2.03;;;;;;;17.33;70.89;101590.69;5024522;28;20210;-80
2022/08/09 02:41:11;;;;;;;2.93;2.73;;;;;;;17.37;70.28;101616.06;5024794;28;20225;-80
2022/08/09 02:43:39;;;;;;;3.23;2.40;;;;;;;17.33;70.45;101622.34;5024448;28;20222;-81
2022/08/09 02:46:08;;;;;;;2.47;2.23;;;;;;;17.38;70.21;101619.56;5024820;28;20246;-81
2022/08/09 02:48:39;;;;;;;2.80;2.60;;;;;;;17.27;71.22;101609.34;5023621;28;20452;-82
2022/08/09 02:51:09;;;;;;;2.97;2.63;;;;;;;17.14;71.64;101584.19;5024183;28;20637;-81
2022/08/09 02:53:39;;;;;;;2.73;2.20;;;;;;;17.12;71.87;101567.53;5024774;28;20863;-80
2022/08/09 02:56:08;;;;;;;4.80;2.53;;;;;;;17.10;71.93;101579.91;5024347;28;20210;-79
2022/08/09 02:58:36;;;;;;;3.73;2.60;;;;;;;17.03;72.46;101561.63;5026492;28;20276;-82
2022/08/09 03:01:03;;;;;;;2.33;2.17;;;;;;;16.95;72.78;101554.84;5028625;28;20229;-79
2022/08/09 03:03:32;;;;;;;3.40;3.20;;;;;;;16.86;72.92;101551.50;5029675;28;20821;-80
2022/08/09 03:06:02;;;;;;;3.20;2.90;;;;;;;16.88;72.68;101562.03;5027969;28;20206;-79
2022/08/09 03:08:30;;;;;;;3.03;2.40;;;;;;;16.90;73.26;101543.53;5029556;28;20211;-79
2022/08/09 03:10:59;;;;;;;2.80;2.70;;;;;;;16.87;73.22;101534.78;5028970;28;20229;-80
2022/08/09 03:13:28;;;;;;;3.17;2.53;;;;;;;16.77;73.30;101532.41;5031266;28;20222;-79
2022/08/09 03:15:55;;;;;;;3.17;2.93;;;;;;;16.87;73.58;101539.22;5033282;28;20209;-81
2022/08/09 03:18:23;;;;;;;2.77;2.30;;;;;;;16.73;73.57;101543.94;5034275;28;20207;-82
2022/08/09 03:20:51;;;;;;;3.07;2.80;;;;;;;16.82;72.81;101562.19;5034539;28;20202;-80
2022/08/09 03:23:20;;;;;;;2.30;2.17;;;;;;;16.90;72.58;101580.47;5033339;28;20630;-80
2022/08/09 03:25:48;;;;;;;3.10;2.80;;;;;;;16.92;72.50;101582.13;5033718;28;20575;-81
2022/08/09 03:28:17;;;;;;;2.93;2.60;;;;;;;16.94;72.40;101592.66;5033823;28;20210;-81
2022/08/09 03:30:43;;;;;;;2.83;2.00;;;;;;;16.95;72.39;101599.66;5033821;28;20199;-83
2022/08/09 03:33:12;;;;;;;2.90;2.57;;;;;;;17.00;73.86;101587.22;5034136;28;20231;-81
2022/08/09 03:35:38;;;;;;;2.43;2.23;;;;;;;16.92;72.91;101578.63;5034760;28;20253;-83
2022/08/09 03:38:05;;;;;;;2.47;2.37;;;;;;;16.77;73.33;101578.13;5033523;28;20210;-82
2022/08/09 03:40:33;;;;;;;2.63;2.43;;;;;;;16.71;73.35;101580.03;5034149;28;20232;-82
2022/08/09 03:42:59;;;;;;;4.53;2.50;;;;;;;16.71;74.66;101557.19;5034933;28;20725;-80
2022/08/09 03:45:26;;;;;;;3.20;3.00;;;;;;;16.72;73.87;101553.63;5031826;28;20207;-80
2022/08/09 03:47:52;;;;;;;2.70;2.50;;;;;;;16.80;74.34;101558.72;5021378;28;20602;-80
2022/08/09 03:50:22;;;;;;;3.10;2.80;;;;;;;16.82;73.10;101570.97;5022647;28;20233;-80
2022/08/09 03:52:49;;;;;;;2.77;2.50;;;;;;;16.84;72.96;101584.97;5022285;28;20289;-79
2022/08/09 03:55:15;;;;;;;2.57;2.27;;;;;;;16.79;72.91;101601.81;5020967;28;20209;-80
2022/08/09 03:57:43;;;;;;;3.57;2.70;;;;;;;16.71;73.57;101595.84;5021639;28;20214;-80
2022/08/09 04:00:11;;;;;;;2.80;2.60;;;;;;;16.68;74.77;101563.38;5022006;28;20207;-81
2022/08/09 04:02:38;;;;;;;2.63;2.37;;;;;;;16.60;74.35;101564.50;5021343;28;20258;-80
2022/08/09 04:05:06;;;;;;;3.43;2.57;;;;;;;16.53;74.78;101561.19;5021823;28;20621;-80
2022/08/09 04:07:32;;;;;;;3.00;2.80;;;;;;;16.49;74.70;101559.53;5021585;28;20207;-82
2022/08/09 04:09:59;;;;;;;3.13;2.90;;;;;;;16.38;75.37;101549.25;5021552;28;20261;-80
2022/08/09 04:12:41;;;;;;;2.90;2.60;;;;;;;16.52;74.51;101554.16;5021765;28;20230;-79
2022/08/09 04:15:10;;;;;;;2.90;2.70;;;;;;;16.62;75.52;101531.06;5021588;28;20234;-80
2022/08/09 04:17:36;;;;;;;2.77;2.30;;;;;;;16.67;74.39;101564.31;5020632;28;20207;-79
2022/08/09 04:20:04;;;;;;;4.33;3.00;;;;;;;16.66;74.27;101574.88;5021353;28;20554;-80
2022/08/09 04:22:30;;;;;;;2.90;2.70;;;;;;;16.61;74.42;101572.38;5021106;28;20305;-80
2022/08/09 04:24:57;;;;;;;3.10;2.80;;;;;;;16.61;74.55;101582.03;5022438;28;20297;-79
2022/08/09 04:27:23;;;;;;;2.90;2.60;;;;;;;16.53;74.67;101582.25;5021025;28;20206;-80
2022/08/09 04:29:50;;;;;;;2.70;2.50;;;;;;;16.58;75.39;101566.31;5021816;28;20206;-79
2022/08/09 04:32:18;;;;;;;3.77;3.03;;;;;;;16.64;74.46;101581.97;5021425;28;20787;-80
2022/08/09 04:34:44;;;;;;;3.23;2.73;;;;;;;16.59;74.65;101600.56;5021598;28;20353;-81
2022/08/09 04:37:11;;;;;;;2.67;2.47;;;;;;;16.56;74.57;101600.63;5021937;28;20257;-80
2022/08/09 04:39:37;;;;;;;3.57;2.90;;;;;;;16.60;74.64;101607.53;5020913;28;20219;-79
2022/08/09 04:42:04;;;;;;;3.83;2.67;;;;;;;16.60;74.48;101599.63;5020474;28;20219;-79
2022/08/09 04:44:31;;;;;;;2.50;2.30;;;;;;;16.73;76.21;101559.75;5021355;28;20214;-82
2022/08/09 04:46:58;;;;;;;3.87;2.80;;;;;;;16.79;75.37;101555.22;5020966;28;20207;-79
2022/08/09 04:49:31;;;;;;;3.63;3.20;;;;;;;16.79;74.25;101593.91;5020811;28;20673;-80
2022/08/09 04:51:57;;;;;;;3.00;2.70;;;;;;;16.81;74.57;101613.19;5021264;28;20233;-81
2022/08/09 04:54:24;;;;;;;3.23;2.93;;;;;;;16.90;76.77;101554.94;5021053;28;20202;-80
2022/08/09 04:56:50;;;;;;;4.10;2.73;;;;;;;16.95;76.23;101553.06;5020296;28;20338;-80
2022/08/09 04:59:17;;;;;;;3.13;2.60;;;;;;;16.95;74.85;101589.13;5020798;28;20211;-80
2022/08/09 05:01:43;;;;;;;3.30;3.00;;;;;;;16.96;75.22;101602.25;5020723;28;20249;-79
2022/08/09 05:04:10;;;;;;;3.87;3.07;;;;;;;16.92;74.85;101603.22;5020584;28;20215;-81
2022/08/09 05:06:38;;;;;;;3.27;3.07;;;;;;;16.92;74.62;101626.13;5020917;28;20210;-81
2022/08/09 05:09:04;;;;;;;4.37;3.20;;;;;;;16.94;74.70;101617.25;5020517;28;20202;-81
2022/08/09 05:11:30;;;;;;;3.23;2.93;;;;;;;16.84;74.76;101629.81;5019441;28;20214;-80
2022/08/09 05:13:57;;;;;;;2.83;2.50;;;;;;;16.92;74.97;101631.38;5019787;28;20281;-79
2022/08/09 05:16:23;;;;;;;3.57;3.30;;;;;;;16.71;75.18;101620.47;5019906;28;20210;-81
2022/08/09 05:18:50;;;;;;;4.17;3.87;;;;;;;16.06;78.09;101563.22;5020620;28;20276;-81
2022/08/09 05:21:16;;;;;;;5.50;5.00;;;;;;;15.63;80.58;101483.41;5019999;28;20207;-80
2022/08/09 05:23:44;;;;;;;5.43;5.03;;;;;;;15.42;82.58;101404.97;5020402;28;20312;-80
2022/08/09 05:26:11;;;;;;;5.83;4.83;;;;;;;15.36;83.93;101365.66;5019327;28;20672;-79
2022/08/09 05:28:37;;;;;;;5.30;5.00;;;;;;;15.54;83.95;101345.91;5018946;28;20285;-79
2022/08/09 05:31:04;;;;;;;6.40;4.97;;;;;;;15.83;82.90;101377.66;5018818;28;20206;-80
2022/08/09 05:33:30;;;;;;;5.13;4.63;;;;;;;15.89;82.07;101416.13;5019056;28;20227;-80
2022/08/09 05:35:56;;;;;;;6.20;5.27;;;;;;;15.93;82.42;101420.41;5018614;28;20214;-79
2022/08/09 05:38:23;;;;;;;4.70;4.37;;;;;;;15.91;82.93;101424.00;5018772;28;20278;-80
2022/08/09 05:40:51;;;;;;;4.67;4.27;;;;;;;16.13;82.00;101442.75;5019198;28;20202;-80
2022/08/09 05:43:19;;;;;;;5.20;4.70;;;;;;;16.31;81.60;101465.97;5020690;28;20219;-80
2022/08/09 05:45:46;;;;;;;7.60;5.13;;;;;;;16.32;80.96;101491.44;5019863;28;20210;-80
2022/08/09 05:48:12;;;;;;;5.50;4.83;;;;;;;16.40;80.86;101507.91;5019853;28;20206;-82
2022/08/09 05:50:40;;;;;;;5.10;4.60;;;;;;;16.55;80.33;101526.84;5016070;28;20207;-81
2022/08/09 05:53:07;;;;;;;4.90;4.27;;;;;;;16.67;79.77;101552.91;5020874;28;20230;-81
2022/08/09 05:55:34;;;;;;;5.90;5.40;;;;;;;16.79;78.87;101588.63;5021701;28;20203;-81
2022/08/09 05:58:02;;;;;;;7.47;4.33;;;;;;;16.81;78.10;101619.34;5021217;28;20293;-81
2022/08/09 06:00:30;;;;;;;5.17;4.67;;;;;;;16.90;77.55;101635.84;5019002;28;20205;-80
2022/08/09 06:02:56;;;;;;;5.93;4.73;;;;;;;16.94;77.79;101643.63;5020348;28;20215;-80
2022/08/09 06:05:23;;;;;;;5.53;4.63;;;;;;;16.98;77.20;101660.25;5022527;28;20731;-80
2022/08/09 06:07:49;;;;;;;4.80;4.10;;;;;;;17.03;76.38;101684.75;5022991;28;20226;-81
2022/08/09 06:10:16;;;;;;;4.17;3.80;;;;;;;17.06;75.84;101703.13;5022679;28;20210;-81
2022/08/09 06:12:42;;;;;;;4.40;4.03;;;;;;;17.05;75.34;101726.00;5021182;28;20284;-80
2022/08/09 06:15:11;;;;;;;4.73;4.10;;;;;;;17.09;75.23;101725.94;5020877;28;20214;-80
2022/08/09 06:17:38;;;;;;;4.77;4.37;;;;;;;17.14;75.05;101743.34;5021865;28;20199;-80
2022/08/09 06:20:05;;;;;;;5.80;4.67;;;;;;;17.13;75.58;101741.63;5021304;28;20265;-80
2022/08/09 06:22:31;;;;;;;4.97;4.67;;;;;;;17.20;75.69;101724.72;5022975;28;20223;-80
2022/08/09 06:24:58;;;;;;;5.07;4.67;;;;;;;17.19;76.16;101715.09;5022983;28;20202;-80
2022/08/09 06:27:24;;;;;;;5.17;4.43;;;;;;;17.05;77.34;101686.44;5023125;28;20205;-80
2022/08/09 06:29:51;;;;;;;5.87;4.13;;;;;;;17.18;76.69;101686.09;5023012;28;20226;-81
2022/08/09 06:32:18;;;;;;;5.07;4.67;;;;;;;17.26;76.03;101692.91;5021439;28;20215;-79
2022/08/09 06:34:45;;;;;;;4.60;4.20;;;;;;;17.17;75.82;101721.31;5022482;28;20199;-81
2022/08/09 06:37:12;;;;;;;5.17;4.20;;;;;;;17.29;75.58;101728.91;5023769;28;20217;-82
2022/08/09 06:39:38;;;;;;;4.20;3.57;;;;;;;17.36;75.48;101724.31;5023508;28;20213;-80
2022/08/09 06:42:05;;;;;;;4.40;4.00;;;;;;;17.46;75.71;101723.16;5025719;28;20313;-80
2022/08/09 06:44:31;;;;;;;3.60;3.33;;;;;;;17.56;73.50;101781.88;5025526;28;20610;-79
2022/08/09 06:46:58;;;;;;;3.87;3.40;;;;;;;17.58;74.14;101788.88;5023334;28;20206;-81
2022/08/09 06:49:26;;;;;;;5.50;3.80;;;;;;;17.71;73.38;101801.75;5017947;28;20621;-80
2022/08/09 06:51:52;;;;;;;4.30;3.30;;;;;;;17.79;73.18;101815.59;5017610;28;20235;-80
2022/08/09 06:54:18;;;;;;;4.03;3.63;;;;;;;17.89;72.31;101832.97;5020226;28;20577;-79
2022/08/09 06:56:45;;;;;;;6.50;3.57;;;;;;;17.97;71.45;101856.53;5019192;28;20261;-81
2022/08/09 06:59:11;;;;;;;3.87;3.57;;;;;;;18.00;71.27;101883.75;5019929;28;20264;-80
2022/08/09 07:01:38;;;;;;;4.43;3.67;;;;;;;18.04;71.24;101880.13;5020884;28;20207;-80
2022/08/09 07:04:04;;;;;;;6.50;4.13;;;;;;;18.09;71.36;101881.75;5020277;28;20206;-80
2022/08/09 07:06:34;;;;;;;3.87;3.53;;;;;;;18.19;71.20;101880.59;5020920;28;20206;-79
2022/08/09 07:09:00;;;;;;;4.70;3.50;;;;;;;18.16;70.09;101907.97;5019619;28;20214;-80
2022/08/09 07:11:26;;;;;;;4.97;3.37;;;;;;;18.18;70.03;101924.66;5017126;28;20237;-80
2022/08/09 07:13:53;;;;;;;3.57;3.27;;;;;;;18.24;70.13;101916.56;5022179;28;20277;-79
2022/08/09 07:16:19;;;;;;;3.93;3.57;;;;;;;18.28;70.53;101930.56;5025310;28;20207;-81
2022/08/09 07:18:46;;;;;;;3.50;3.30;;;;;;;18.35;70.35;101923.34;5026846;28;20230;-80
2022/08/09 07:21:12;;;;;;;3.90;3.60;;;;;;;18.45;69.60;101933.63;5030756;28;20207;-80
2022/08/09 07:23:41;;;;;;;4.47;4.03;;;;;;;18.53;69.44;101937.81;5029344;28;20250;-80
2022/08/09 07:26:08;;;;;;;4.80;3.63;;;;;;;18.57;68.96;101956.22;5029930;28;20221;-82
2022/08/09 07:28:35;;;;;;;3.77;3.47;;;;;;;18.65;69.38;101943.63;5023958;28;20217;-79
2022/08/09 07:31:03;;;;;;;3.70;3.40;;;;;;;18.73;68.52;101966.34;5021068;28;20203;-81
2022/08/09 07:33:29;;;;;;;3.53;3.23;;;;;;;18.82;68.64;101968.78;5020057;28;20266;-80
2022/08/09 07:35:56;;;;;;;3.67;3.37;;;;;;;18.91;68.54;101972.91;5020112;28;20211;-80
2022/08/09 07:38:22;;;;;;;6.10;3.57;;;;;;;19.00;67.86;101981.44;5017422;28;20214;-81
2022/08/09 07:40:51;;;;;;;4.53;3.63;;;;;;;19.10;67.44;102007.66;5019720;28;20207;-78
2022/08/09 07:43:18;;;;;;;4.40;4.00;;;;;;;19.19;67.83;102021.50;5016767;28;20245;-79
2022/08/09 07:45:45;;;;;;;3.50;3.17;;;;;;;19.23;66.97;102015.19;5016247;28;20222;-80
2022/08/09 07:48:12;;;;;;;3.63;3.30;;;;;;;19.33;66.79;102029.03;5016185;28;20573;-80
2022/08/09 07:50:39;;;;;;;8.43;3.37;;;;;;;19.42;66.20;102046.41;5025363;28;20298;-80
2022/08/09 07:53:06;;;;;;;4.37;3.27;;;;;;;19.49;66.39;102039.16;5020952;28;20231;-80
2022/08/09 07:55:33;;;;;;;4.37;3.50;;;;;;;19.53;66.52;102040.81;5016428;28;20199;-79
2022/08/09 07:58:01;;;;;;;8.83;3.73;;;;;;;19.64;67.27;102018.34;5016581;28;20747;-79
2022/08/09 08:00:28;;;;;;;3.60;3.10;;;;;;;19.73;66.41;102014.56;5016409;28;20281;-80
2022/08/09 08:02:55;;;;;;;4.07;3.70;;;;;;;19.80;65.18;102055.88;5015025;28;20227;-80
2022/08/09 08:05:21;;;;;;;3.77;3.47;;;;;;;19.86;64.72;102080.41;5015066;28;20249;-80
2022/08/09 08:07:48;;;;;;;4.50;3.73;;;;;;;19.86;65.78;102048.63;5015612;28;20609;-80
2022/08/09 08:10:14;;;;;;;4.53;3.87;;;;;;;19.92;64.96;102080.22;5015077;28;20269;-80
2022/08/09 08:12:43;;;;;;;4.10;3.70;;;;;;;19.95;65.12;102073.03;5014351;28;20275;-80
2022/08/09 08:15:12;;;;;;;4.57;3.90;;;;;;;20.01;64.16;102088.75;5014357;28;20721;-80
2022/08/09 08:17:38;;;;;;;4.00;3.53;;;;;;;20.11;63.72;102109.69;5014408;28;20273;-80
2022/08/09 08:20:06;;;;;;;4.03;3.73;;;;;;;20.17;63.89;102112.97;5014580;28;20249;-80
2022/08/09 08:22:32;;;;;;;3.47;3.17;;;;;;;20.21;63.47;102106.66;5014301;28;20722;-80
2022/08/09 08:24:58;;;;;;;4.63;3.90;;;;;;;20.26;63.31;102111.84;5015597;28;20249;-81
2022/08/09 08:27:26;;;;;;;3.60;3.30;;;;;;;20.32;63.41;102127.53;5014910;28;20719;-79
2022/08/09 08:29:53;;;;;;;3.90;3.40;;;;;;;20.36;62.59;102134.47;5014771;28;20202;-80
2022/08/09 08:32:21;;;;;;;4.47;3.20;;;;;;;20.40;62.96;102135.25;5015519;28;20222;-80
2022/08/09 08:34:48;;;;;;;4.40;3.87;;;;;;;20.43;63.26;102119.22;5014602;28;20231;-81
2022/08/09 08:37:15;;;;;;;5.03;3.57;;;;;;;20.50;62.08;102147.28;5016019;28;20206;-80
2022/08/09 08:39:42;;;;;;;4.00;3.60;;;;;;;20.57;62.67;102156.78;5015461;28;20234;-80
2022/08/09 08:42:08;;;;;;;3.80;3.50;;;;;;;20.62;61.33;102176.09;5015224;28;20314;-80
2022/08/09 08:44:36;;;;;;;4.07;3.63;;;;;;;20.63;62.40;102151.31;5015003;28;20199;-80
2022/08/09 08:47:04;;;;;;;6.07;3.50;;;;;;;20.74;62.72;102127.03;5016250;28;20238;-79
2022/08/09 08:49:36;;;;;;;4.20;3.80;;;;;;;20.83;61.60;102170.97;5015969;28;20199;-80
2022/08/09 08:52:02;;;;;;;3.50;3.20;;;;;;;20.92;60.73;102191.03;5016052;28;20234;-80
2022/08/09 08:54:29;;;;;;;3.13;2.93;;;;;;;20.93;60.92;102206.03;5016431;28;20227;-79
2022/08/09 08:56:56;;;;;;;4.40;3.30;;;;;;;21.01;59.92;102225.25;5014464;28;20207;-80
2022/08/09 08:59:22;;;;;;;4.10;3.20;;;;;;;21.08;60.03;102237.38;5015658;28;20207;-81
2022/08/09 09:01:50;;;;;;;6.27;3.30;;;;;;;21.13;58.88;102263.78;5016495;28;20227;-78
2022/08/09 09:04:18;;;;;;;3.87;3.47;;;;;;;21.20;58.42;102287.41;5015184;28;20570;-79
2022/08/09 09:06:49;;;;;;;3.27;2.97;;;;;;;21.24;58.36;102296.16;5015577;28;20211;-79
2022/08/09 09:09:16;;;;;;;3.10;2.90;;;;;;;21.20;59.17;102270.63;5015432;28;20213;-80
2022/08/09 09:11:44;;;;;;;5.43;3.50;;;;;;;21.30;58.17;102280.00;5015646;28;20297;-80
2022/08/09 09:14:15;;;;;;;8.87;2.87;;;;;;;21.37;57.29;102313.41;5016275;28;20222;-79
2022/08/09 09:16:41;;;;;;;3.47;3.20;;;;;;;21.44;57.85;102287.53;5017452;28;20207;-80
2022/08/09 09:19:10;;;;;;;3.50;3.20;;;;;;;21.51;56.90;102315.63;5018502;28;20207;-79
2022/08/09 09:21:36;;;;;;;3.87;3.50;;;;;;;21.60;57.48;102317.97;5017187;28;20210;-79
2022/08/09 09:24:05;;;;;;;3.30;2.90;;;;;;;;;;5017097;28;20279;-79
2022/08/09 09:26:33;;;;;;;2.97;2.73;;;;;;;21.68;55.58;102357.53;5021290;28;20211;-81
2022/08/09 09:29:00;;;;;;;2.90;2.53;;;;;;;21.70;56.52;102354.84;5028108;28;20211;-80
2022/08/09 09:31:27;;;;;;;2.47;2.37;;;;;;;21.78;55.38;102377.59;5027769;28;20215;-79
2022/08/09 09:34:10;;;;;;;3.03;2.83;;;;;;;21.86;57.70;102355.16;5028244;28;20249;-81
2022/08/09 09:36:39;;;;;;;2.80;2.50;;;;;;;21.93;56.53;102338.94;5031701;28;20277;-80
2022/08/09 09:39:08;;;;;;;4.43;2.70;;;;;;;22.06;54.28;102376.63;5019014;28;20242;-80
2022/08/09 09:41:35;;;;;;;3.53;3.23;;;;;;;22.10;53.83;102414.59;5017893;28;20234;-80
2022/08/09 09:44:04;;;;;;;4.93;2.80;;;;;;;22.13;53.22;102457.91;5017011;28;20207;-80
2022/08/09 09:46:33;;;;;;;3.53;3.00;;;;;;;22.17;54.11;102453.34;5016358;28;20218;-79
2022/08/09 09:49:01;;;;;;;4.43;2.90;;;;;;;22.25;52.62;102480.59;5016394;28;20238;-80
2022/08/09 09:51:29;;;;;;;3.10;2.80;;;;;;;22.26;53.25;102469.03;5017645;28;20302;-80
2022/08/09 09:54:11;;;;;;;3.07;2.70;;;;;;;22.32;52.82;102478.56;5015876;28;20226;-79
2022/08/09 09:56:40;;;;;;;2.63;2.53;;;;;;;22.40;52.51;102465.88;5015458;28;20576;-79
2022/08/09 09:59:08;;;;;;;4.97;2.50;;;;;;;22.40;52.22;102489.81;5015154;28;20696;-80
2022/08/09 10:01:34;;;;;;;2.83;2.63;;;;;;;22.37;52.77;102473.94;5015785;28;20207;-79
2022/08/09 10:04:01;;;;;;;3.67;3.33;;;;;;;22.47;51.86;102495.78;5015152;28;20249;-79
2022/08/09 10:06:29;;;;;;;4.07;2.77;;;;;;;22.55;50.69;102521.19;5015798;28;20686;-79
2022/08/09 10:09:00;;;;;;;4.00;2.73;;;;;;;22.64;50.13;102535.97;5015063;28;20261;-79
2022/08/09 10:11:29;;;;;;;3.27;2.43;;;;;;;22.74;50.70;102545.38;5015001;28;20301;-80
2022/08/09 10:13:56;;;;;;;2.80;2.60;;;;;;;22.81;51.57;102532.69;5015602;28;20301;-79
2022/08/09 10:16:33;;;;;;;3.00;2.80;;;;;;;22.94;50.45;102517.13;5015194;28;20245;-80
2022/08/09 10:19:02;;;;;;;4.13;2.80;;;;;;;23.03;49.68;102530.09;5014889;28;20206;-80
2022/08/09 10:21:29;;;;;;;5.57;2.87;;;;;;;23.12;51.12;102503.13;5014783;28;20261;-79
2022/08/09 10:24:00;;;;;;;2.60;2.40;;;;;;;23.19;51.52;102501.09;5015158;28;20743;-80
2022/08/09 10:26:29;;;;;;;2.77;2.50;;;;;;;23.30;50.25;102530.84;5015005;28;20255;-79
2022/08/09 10:28:57;;;;;;;2.93;2.73;;;;;;;23.42;49.54;102548.16;5015349;28;20265;-79
2022/08/09 10:31:24;;;;;;;3.37;2.53;;;;;;;23.51;48.63;102574.47;5015316;28;20203;-80
2022/08/09 10:33:51;;;;;;;2.43;2.33;;;;;;;23.54;49.29;102568.13;5020820;28;20229;-80
2022/08/09 10:36:18;;;;;;;3.40;3.10;;;;;;;23.57;49.61;102578.69;5014856;28;20211;-80
2022/08/09 10:38:46;;;;;;;3.00;2.70;;;;;;;23.67;49.53;102550.72;5015520;28;20245;-80
2022/08/09 10:41:15;;;;;;;3.17;2.77;;;;;;;23.76;48.60;102558.34;5015570;28;20673;-80
2022/08/09 10:43:45;;;;;;;3.33;3.13;;;;;;;23.74;47.74;102588.66;5016076;28;20624;-79
2022/08/09 10:46:46;;;;;;;3.13;2.83;;;;;;;23.59;46.59;102628.34;5016079;28;20718;-80
2022/08/09 10:49:20;;;;;;;3.20;2.70;;;;;;;23.75;47.17;102612.63;4997388;28;20264;-80
2022/08/09 10:51:54;;;;;;;3.37;3.07;;;;;;;23.91;47.16;102602.22;5017211;28;20244;-79
2022/08/09 10:54:23;;;;;;;3.47;2.87;;;;;;;23.99;46.44;102605.44;5018456;28;20289;-80
2022/08/09 10:57:06;;;;;;;2.47;2.27;;;;;;;24.03;47.06;102618.69;5018755;28;20211;-78
2022/08/09 10:59:36;;;;;;;3.03;2.80;;;;;;;24.05;46.51;102620.34;5017880;28;20269;-81
2022/08/09 11:02:04;;;;;;;2.90;2.70;;;;;;;24.10;46.06;102636.16;5016038;28;20642;-80
2022/08/09 11:04:31;;;;;;;3.00;2.80;;;;;;;24.15;45.96;102658.19;5017017;28;20601;-80
2022/08/09 11:07:27;;;;;;;3.47;3.03;;;;;;;24.18;45.46;102666.97;5016185;28;20211;-80
2022/08/09 11:09:54;;;;;;;3.13;2.93;;;;;;;24.22;45.89;102654.38;5015797;28;20244;-81
2022/08/09 11:12:24;;;;;;;2.87;2.67;;;;;;;24.22;46.39;102629.44;5016852;28;20227;-81
2022/08/09 11:14:54;;;;;;;2.97;2.77;;;;;;;24.31;46.34;102613.06;5016500;28;20233;-79
2022/08/09 11:17:54;;;;;;;3.00;2.70;;;;;;;24.55;45.54;102603.16;5017224;28;20209;-80
2022/08/09 11:20:46;;;;;;;2.83;2.43;;;;;;;24.85;45.38;102603.59;5019941;28;20272;-81
2022/08/09 11:23:13;;;;;;;2.43;2.33;;;;;;;25.04;44.51;102657.09;5019382;28;20602;-81
2022/08/09 11:25:47;;;;;;;2.93;2.60;;;;;;;25.16;43.98;102690.44;5018126;28;20490;-81
2022/08/09 11:28:34;;;;;;;2.67;2.57;;;;;;;25.21;43.94;102704.44;5018741;28;20219;-79
2022/08/09 11:31:03;;;;;;;2.70;2.50;;;;;;;25.32;44.05;102701.34;5019903;28;20214;-79
2022/08/09 11:33:41;;;;;;;2.33;2.23;;;;;;;25.40;45.07;102696.50;5022519;28;20222;-80